createdAt,value
2019-04-06T00:00:13.773Z,4.20
2019-04-06T00:02:44.922Z,2.12
2019-04-06T00:05:14.941Z,2.67
2019-04-06T00:07:45.137Z,4.12
2019-04-06T00:10:15.760Z,2.45
2019-04-06T00:12:45.539Z,3.15
2019-04-06T00:15:15.411Z,2.52
2019-04-06T00:17:46.534Z,3.12
2019-04-06T00:20:18.099Z,3.60
2019-04-06T00:22:47.851Z,3.30
2019-04-06T00:25:17.652Z,3.00
2019-04-06T00:27:49.675Z,2.30
2019-04-06T00:30:19.807Z,4.65
2019-04-06T00:32:56.516Z,3.00
2019-04-06T00:35:26.298Z,3.40
2019-04-06T00:37:57.355Z,3.12
2019-04-06T00:40:28.785Z,4.50
2019-04-06T00:42:58.529Z,5.03
2019-04-06T00:45:28.304Z,3.40
2019-04-06T00:47:58.061Z,3.77
2019-04-06T00:50:28.054Z,4.20
2019-04-06T00:52:59.393Z,4.10
2019-04-06T00:55:32.123Z,4.25
2019-04-06T00:58:01.866Z,4.00
2019-04-06T01:00:34.055Z,3.75
2019-04-06T01:03:04.481Z,3.70
2019-04-06T01:05:43.612Z,4.12
2019-04-06T01:08:15.264Z,4.75
2019-04-06T01:10:45.034Z,3.50
2019-04-06T01:13:14.795Z,3.77
2019-04-06T01:15:44.639Z,4.05
2019-04-06T01:18:17.110Z,3.67
2019-04-06T01:20:46.888Z,4.35
2019-04-06T01:23:16.647Z,3.33
2019-04-06T01:25:46.438Z,4.40
2019-04-06T01:28:16.212Z,3.40
2019-04-06T01:30:45.994Z,4.30
2019-04-06T01:33:15.851Z,4.28
2019-04-06T01:35:45.618Z,3.70
2019-04-06T01:38:15.384Z,3.05
2019-04-06T01:40:45.143Z,4.80
2019-04-06T01:43:14.849Z,3.87
2019-04-06T01:45:44.632Z,3.40
2019-04-06T01:48:14.395Z,4.22
2019-04-06T01:50:44.165Z,4.03
2019-04-06T01:53:13.942Z,5.28
2019-04-06T01:55:45.072Z,3.83
2019-04-06T01:58:14.911Z,3.40
2019-04-06T02:00:58.302Z,3.75
2019-04-06T02:03:30.439Z,5.00
2019-04-06T02:06:00.229Z,4.90
2019-04-06T02:08:30.006Z,4.72
2019-04-06T02:10:59.771Z,3.87
2019-04-06T02:13:29.523Z,4.30
2019-04-06T02:15:59.537Z,4.10
2019-04-06T02:18:30.375Z,4.62
2019-04-06T02:21:19.482Z,3.05
2019-04-06T02:23:51.197Z,3.92
2019-04-06T02:26:30.261Z,3.30
2019-04-06T02:28:53.810Z,3.02
2019-04-06T02:31:43.272Z,4.80
2019-04-06T02:34:30.481Z,4.65
2019-04-06T02:37:22.069Z,3.40
2019-04-06T02:40:31.745Z,4.45
2019-04-06T02:43:05.263Z,4.67
2019-04-06T02:45:37.125Z,4.17
2019-04-06T02:48:07.017Z,4.17
2019-04-06T02:50:36.758Z,4.17
2019-04-06T02:53:08.160Z,4.97
2019-04-06T02:55:39.534Z,4.60
2019-04-06T02:58:09.600Z,4.40
2019-04-06T03:00:39.560Z,4.10
2019-04-06T03:03:09.287Z,4.80
2019-04-06T03:05:38.965Z,4.78
2019-04-06T03:08:09.385Z,6.37
2019-04-06T03:10:39.176Z,2.87
2019-04-06T03:13:09.004Z,5.95
2019-04-06T03:15:38.835Z,4.30
2019-04-06T03:18:08.568Z,5.47
2019-04-06T03:20:38.389Z,6.25
2019-04-06T03:23:08.048Z,3.85
2019-04-06T03:25:37.990Z,4.30
2019-04-06T03:28:07.667Z,4.90
2019-04-06T03:30:37.381Z,5.17
2019-04-06T03:33:07.182Z,6.65
2019-04-06T03:35:48.241Z,6.03
2019-04-06T03:38:14.401Z,4.47
2019-04-06T03:40:44.142Z,4.05
2019-04-06T03:43:13.889Z,2.72
2019-04-06T03:45:45.143Z,3.45
2019-04-06T03:48:16.100Z,3.25
2019-04-06T03:50:45.809Z,4.62
2019-04-06T03:53:15.469Z,5.00
2019-04-06T03:55:45.129Z,4.75
2019-04-06T03:58:14.729Z,4.35
2019-04-06T04:00:44.552Z,5.28
2019-04-06T04:03:14.250Z,4.60
2019-04-06T04:05:43.961Z,4.80
2019-04-06T04:08:15.372Z,6.03
2019-04-06T04:10:47.853Z,4.70
2019-04-06T04:13:17.313Z,4.65
2019-04-06T04:15:47.102Z,6.42
2019-04-06T04:18:16.797Z,3.40
2019-04-06T04:20:46.428Z,3.08
2019-04-06T04:23:17.350Z,5.10
2019-04-06T04:25:46.990Z,5.05
2019-04-06T04:28:18.388Z,3.40
2019-04-06T04:30:48.103Z,5.12
2019-04-06T04:33:20.116Z,4.30
2019-04-06T04:35:52.522Z,3.17
2019-04-06T04:38:22.188Z,4.75
2019-04-06T04:40:51.793Z,5.33
2019-04-06T04:43:23.919Z,6.30
2019-04-06T04:45:54.550Z,4.65
2019-04-06T04:48:24.293Z,7.45
2019-04-06T04:50:54.186Z,4.20
2019-04-06T04:53:26.359Z,4.47
2019-04-06T04:55:55.980Z,5.70
2019-04-06T04:58:27.947Z,6.08
2019-04-06T05:01:00.413Z,4.55
2019-04-06T05:03:30.027Z,4.67
2019-04-06T05:05:59.647Z,5.12
2019-04-06T05:08:29.296Z,5.72
2019-04-06T05:11:01.910Z,5.58
2019-04-06T05:13:32.615Z,6.70
2019-04-06T05:16:12.473Z,5.03
2019-04-06T05:18:44.769Z,5.97
2019-04-06T05:21:14.486Z,5.05
2019-04-06T05:23:45.084Z,7.25
2019-04-06T05:26:14.808Z,7.33
2019-04-06T05:28:47.124Z,7.62
2019-04-06T05:31:18.567Z,6.83
2019-04-06T05:33:50.678Z,7.85
2019-04-06T05:36:21.004Z,7.67
2019-04-06T05:38:50.749Z,6.70
2019-04-06T05:41:23.201Z,5.25
2019-04-06T05:43:56.121Z,5.67
2019-04-06T05:46:25.744Z,7.40
2019-04-06T05:48:58.100Z,7.95
2019-04-06T05:51:29.547Z,6.65
2019-04-06T05:53:59.206Z,7.53
2019-04-06T05:56:28.834Z,5.58
2019-04-06T05:58:58.464Z,6.00
2019-04-06T06:01:28.111Z,5.60
2019-04-06T06:04:00.393Z,5.92
2019-04-06T06:06:30.057Z,5.22
2019-04-06T06:08:59.790Z,6.47
2019-04-06T06:11:29.423Z,6.65
2019-04-06T06:13:59.057Z,4.80
2019-04-06T06:16:28.676Z,5.33
2019-04-06T06:19:01.160Z,5.05
2019-04-06T06:21:30.874Z,6.65
2019-04-06T06:24:03.368Z,5.95
2019-04-06T06:26:32.994Z,7.75
2019-04-06T06:29:02.633Z,7.53
2019-04-06T06:31:32.272Z,8.40
2019-04-06T06:34:04.874Z,6.90
2019-04-06T06:36:36.516Z,7.78
2019-04-06T06:39:09.445Z,6.53
2019-04-06T06:41:39.081Z,7.05
2019-04-06T06:44:09.147Z,7.20
2019-04-06T06:46:41.202Z,6.97
2019-04-06T06:49:13.875Z,7.15
2019-04-06T06:51:43.530Z,7.72
2019-04-06T06:54:14.350Z,7.50
2019-04-06T06:56:45.122Z,6.65
2019-04-06T06:59:14.820Z,6.95
2019-04-06T07:01:44.493Z,5.90
2019-04-06T07:04:14.305Z,5.25
2019-04-06T07:06:43.936Z,7.47
2019-04-06T07:09:16.417Z,7.75
2019-04-06T07:11:48.939Z,5.67
2019-04-06T07:14:18.621Z,8.43
2019-04-06T07:16:48.302Z,5.90
2019-04-06T07:19:19.990Z,8.40
2019-04-06T07:21:49.653Z,8.50
2019-04-06T07:24:19.476Z,6.45
2019-04-06T07:26:49.129Z,9.20
2019-04-06T07:29:32.807Z,8.43
2019-04-06T07:32:05.088Z,7.62
2019-04-06T07:34:34.961Z,8.38
2019-04-06T07:37:07.052Z,9.53
2019-04-06T07:39:36.713Z,12.85
2019-04-06T07:42:08.663Z,8.10
2019-04-06T07:44:38.882Z,8.05
2019-04-06T07:47:08.513Z,10.10
2019-04-06T07:49:40.683Z,10.13
2019-04-06T07:52:13.693Z,11.00
2019-04-06T07:54:43.654Z,9.63
2019-04-06T07:57:14.599Z,9.95
2019-04-06T07:59:44.183Z,8.68
2019-04-06T08:02:13.798Z,9.15
2019-04-06T08:04:49.523Z,8.18
2019-04-06T08:07:19.136Z,7.70
2019-04-06T08:09:48.761Z,8.80
2019-04-06T08:12:18.377Z,10.93
2019-04-06T08:14:49.621Z,7.92
2019-04-06T08:17:23.035Z,10.35
2019-04-06T08:19:53.640Z,8.53
2019-04-06T08:22:26.092Z,6.60
2019-04-06T08:24:55.755Z,6.30
2019-04-06T08:27:25.586Z,6.20
2019-04-06T08:29:55.240Z,5.70
2019-04-06T08:32:24.875Z,5.55
2019-04-06T08:34:56.090Z,6.33
2019-04-06T08:37:25.816Z,6.33
2019-04-06T08:39:55.666Z,7.35
2019-04-06T08:42:27.667Z,6.72
2019-04-06T08:45:00.015Z,11.93
2019-04-06T08:47:31.518Z,7.35
2019-04-06T08:50:06.011Z,7.28
2019-04-06T08:52:37.740Z,6.45
2019-04-06T08:55:10.039Z,6.05
2019-04-06T08:57:39.674Z,6.95
2019-04-06T09:00:09.756Z,5.72
2019-04-06T09:02:41.340Z,6.90
2019-04-06T09:05:14.066Z,8.15
2019-04-06T09:07:45.508Z,6.78
2019-04-06T09:10:15.165Z,6.22
2019-04-06T09:12:45.016Z,8.05
2019-04-06T09:15:17.296Z,6.58
2019-04-06T09:17:46.954Z,7.15
2019-04-06T09:20:18.203Z,8.38
2019-04-06T09:22:47.820Z,7.60
2019-04-06T09:25:19.704Z,7.33
2019-04-06T09:27:49.372Z,6.08
2019-04-06T09:30:19.083Z,8.83
2019-04-06T09:32:50.322Z,7.50
2019-04-06T09:35:20.230Z,8.08
2019-04-06T09:37:52.145Z,9.93
2019-04-06T09:40:21.791Z,8.50
2019-04-06T09:42:51.404Z,6.05
2019-04-06T09:45:41.089Z,5.80
2019-04-06T09:48:40.518Z,5.30
2019-04-06T09:51:19.512Z,7.62
2019-04-06T09:54:23.543Z,7.62
2019-04-06T09:57:04.285Z,4.45
2019-04-06T09:59:51.485Z,6.03
2019-04-06T10:02:55.069Z,6.03
2019-04-06T10:05:31.485Z,6.62
2019-04-06T10:08:26.031Z,9.35
2019-04-06T10:11:22.606Z,7.62
2019-04-06T10:14:14.008Z,9.75
2019-04-06T10:17:05.413Z,4.90
2019-04-06T10:19:49.236Z,6.15
2019-04-06T10:22:40.525Z,6.75
2019-04-06T10:25:25.607Z,6.75
2019-04-06T10:28:03.843Z,5.87
2019-04-06T10:30:47.093Z,5.85
2019-04-06T10:33:36.419Z,5.78
2019-04-06T10:36:18.605Z,6.12
2019-04-06T10:39:07.360Z,7.25
2019-04-06T10:42:04.936Z,7.10
2019-04-06T10:44:53.794Z,7.97
2019-04-06T10:47:33.823Z,6.40
2019-04-06T10:50:17.512Z,5.10
2019-04-06T10:52:56.588Z,6.45
2019-04-06T10:55:44.150Z,6.47
2019-04-06T10:58:48.018Z,5.33
2019-04-06T11:01:35.366Z,6.08
2019-04-06T11:04:42.036Z,6.00
2019-04-06T11:07:36.678Z,5.87
2019-04-06T11:10:41.610Z,7.92
2019-04-06T11:13:48.662Z,5.67
2019-04-06T11:16:27.687Z,5.40
2019-04-06T11:19:21.464Z,4.83
2019-04-06T11:22:12.311Z,6.95
2019-04-06T11:25:15.992Z,5.67
2019-04-06T11:28:09.807Z,8.15
2019-04-06T11:30:52.845Z,5.65
2019-04-06T11:33:41.601Z,5.85
2019-04-06T11:36:21.433Z,6.97
2019-04-06T11:39:05.096Z,6.15
2019-04-06T11:42:00.399Z,5.22
2019-04-06T11:44:48.147Z,6.55
2019-04-06T11:47:38.488Z,6.87
2019-04-06T11:50:21.071Z,5.97
2019-04-06T11:53:04.500Z,8.13
2019-04-06T11:55:40.484Z,5.75
2019-04-06T11:58:16.120Z,6.08
2019-04-06T12:01:01.328Z,5.80
2019-04-06T12:03:59.009Z,8.75
2019-04-06T12:06:42.627Z,7.37
2019-04-06T12:09:30.272Z,8.05
2019-04-06T12:12:19.266Z,6.80
2019-04-06T12:15:03.039Z,7.00
2019-04-06T12:17:51.572Z,7.60
2019-04-06T12:20:35.048Z,5.47
2019-04-06T12:23:28.614Z,6.55
2019-04-06T12:26:20.621Z,9.23
2019-04-06T12:29:02.691Z,6.30
2019-04-06T12:31:41.784Z,6.87
2019-04-06T12:34:18.529Z,7.35
2019-04-06T12:37:12.854Z,9.25
2019-04-06T12:40:11.813Z,8.40
2019-04-06T12:42:57.777Z,6.25
2019-04-06T12:45:38.959Z,5.92
2019-04-06T12:48:26.199Z,7.70
2019-04-06T12:51:16.348Z,7.00
2019-04-06T12:54:03.532Z,10.40
2019-04-06T12:56:50.800Z,5.65
2019-04-06T12:59:30.622Z,8.85
2019-04-06T13:02:10.932Z,8.30
2019-04-06T13:05:17.769Z,9.18
2019-04-06T13:08:04.948Z,6.42
2019-04-06T13:11:00.019Z,8.88
2019-04-06T13:13:52.651Z,9.55
2019-04-06T13:16:55.671Z,8.85
2019-04-06T13:19:32.742Z,9.28
2019-04-06T13:22:21.422Z,7.70
2019-04-06T13:25:10.265Z,10.20
2019-04-06T13:27:49.246Z,7.55
2019-04-06T13:30:30.110Z,12.20
2019-04-06T13:33:34.120Z,7.95
2019-04-06T13:36:22.695Z,8.63
2019-04-06T13:39:14.914Z,6.53
2019-04-06T13:42:00.074Z,7.35
2019-04-06T13:44:41.587Z,7.87
2019-04-06T13:47:24.105Z,8.70
2019-04-06T13:50:02.425Z,7.45
2019-04-06T13:52:57.164Z,7.90
2019-04-06T13:55:38.372Z,7.35
2019-04-06T13:58:13.026Z,7.00
2019-04-06T14:00:49.886Z,8.50
2019-04-06T14:03:48.073Z,9.08
2019-04-06T14:06:46.084Z,7.47
2019-04-06T14:09:26.674Z,7.25
2019-04-06T14:12:03.548Z,7.70
2019-04-06T14:14:54.290Z,9.33
2019-04-06T14:17:43.393Z,8.53
2019-04-06T14:20:22.946Z,8.10
2019-04-06T14:23:29.549Z,8.53
2019-04-06T14:26:07.640Z,8.20
2019-04-06T14:28:50.014Z,8.03
2019-04-06T14:31:30.575Z,6.20
2019-04-06T14:34:28.865Z,10.48
2019-04-06T14:37:09.700Z,9.73
2019-04-06T14:39:54.110Z,9.10
2019-04-06T14:42:48.230Z,6.33
2019-04-06T14:45:42.727Z,7.47
2019-04-06T14:48:23.627Z,8.20
2019-04-06T14:51:05.465Z,6.72
2019-04-06T14:53:43.739Z,6.72
2019-04-06T14:56:26.500Z,8.18
2019-04-06T14:59:19.590Z,7.90
2019-04-06T15:02:14.181Z,7.25
2019-04-06T15:05:01.414Z,7.08
2019-04-06T15:07:46.096Z,7.05
2019-04-06T15:10:40.584Z,7.62
2019-04-06T15:13:21.064Z,8.38
2019-04-06T15:16:06.024Z,8.13
2019-04-06T15:19:14.027Z,6.80
2019-04-06T15:21:53.834Z,9.78
2019-04-06T15:24:41.139Z,6.12
2019-04-06T15:27:27.529Z,7.65
2019-04-06T15:30:19.120Z,5.87
2019-04-06T15:33:23.228Z,5.30
2019-04-06T15:36:19.574Z,5.33
2019-04-06T15:39:00.335Z,9.05
2019-04-06T15:41:36.046Z,6.10
2019-04-06T15:44:36.783Z,7.62
2019-04-06T15:47:36.562Z,6.40
2019-04-06T15:50:14.125Z,7.62
2019-04-06T15:52:54.921Z,7.87
2019-04-06T15:55:45.345Z,7.58
2019-04-06T15:58:38.207Z,7.55
2019-04-06T16:01:36.111Z,7.90
2019-04-06T16:04:14.584Z,9.60
2019-04-06T16:06:51.353Z,8.60
2019-04-06T16:09:37.542Z,13.72
2019-04-06T16:12:26.444Z,22.10
2019-04-06T16:15:18.494Z,40.73
2019-04-06T16:18:01.543Z,36.15
2019-04-06T16:20:49.817Z,48.10
2019-04-06T16:23:30.547Z,52.27
2019-04-06T16:26:24.901Z,54.20
2019-04-06T16:29:13.198Z,53.63
2019-04-06T16:32:19.473Z,51.08
2019-04-06T16:35:09.556Z,48.42
2019-04-06T16:37:46.790Z,48.17
2019-04-06T16:40:35.264Z,52.80
2019-04-06T16:43:22.152Z,45.17
2019-04-06T16:46:14.033Z,46.42
2019-04-06T16:49:02.954Z,43.95
2019-04-06T16:51:51.229Z,43.80
2019-04-06T16:54:31.450Z,36.90
2019-04-06T16:57:22.692Z,35.60
2019-04-06T17:00:16.165Z,38.02
2019-04-06T17:02:58.766Z,37.80
2019-04-06T17:05:59.646Z,38.33
2019-04-06T17:08:51.138Z,37.85
2019-04-06T17:11:48.727Z,34.35
2019-04-06T17:14:35.757Z,36.38
2019-04-06T17:17:22.041Z,33.98
2019-04-06T17:20:20.529Z,35.65
2019-04-06T17:23:25.754Z,33.33
2019-04-06T17:26:13.854Z,32.20
2019-04-06T17:29:01.065Z,30.10
2019-04-06T17:31:45.851Z,32.48
2019-04-06T17:34:32.625Z,33.80
2019-04-06T17:37:34.675Z,31.45
2019-04-06T17:40:14.124Z,31.02
2019-04-06T17:43:11.979Z,32.15
2019-04-06T17:46:12.903Z,30.62
2019-04-06T17:49:08.730Z,29.12
2019-04-06T17:51:57.637Z,31.17
2019-04-06T17:54:34.901Z,26.35
2019-04-06T17:57:16.450Z,31.60
2019-04-06T18:00:02.138Z,27.52
2019-04-06T18:02:57.911Z,27.42
2019-04-06T18:06:02.472Z,40.58
2019-04-06T18:08:51.398Z,30.12
2019-04-06T18:11:29.506Z,27.67
2019-04-06T18:13:59.140Z,28.47
2019-04-06T18:16:35.367Z,27.70
2019-04-06T18:19:05.815Z,26.20
2019-04-06T18:21:38.158Z,26.77
2019-04-06T18:24:10.226Z,25.95
2019-04-06T18:26:40.003Z,23.77
2019-04-06T18:29:12.598Z,21.90
2019-04-06T18:31:56.868Z,20.23
2019-04-06T18:34:29.132Z,24.40
2019-04-06T18:37:10.263Z,22.60
2019-04-06T18:39:40.310Z,22.87
2019-04-06T18:42:10.099Z,20.65
2019-04-06T18:44:40.172Z,22.60
2019-04-06T18:47:09.884Z,21.52
2019-04-06T18:49:40.836Z,16.52
2019-04-06T18:52:12.247Z,21.60
2019-04-06T18:54:42.949Z,18.92
2019-04-06T18:57:14.035Z,19.10
2019-04-06T18:59:45.162Z,13.65
2019-04-06T19:02:16.300Z,13.83
2019-04-06T19:04:46.461Z,15.30
2019-04-06T19:07:16.397Z,15.05
2019-04-06T19:09:46.377Z,12.13
2019-04-06T19:12:16.175Z,16.80
2019-04-06T19:14:48.251Z,18.48
2019-04-06T19:17:18.051Z,14.98
2019-04-06T19:19:47.743Z,17.85
2019-04-06T19:22:17.396Z,16.02
2019-04-06T19:24:47.062Z,16.75
2019-04-06T19:27:19.398Z,17.70
2019-04-06T19:30:08.127Z,16.12
2019-04-06T19:32:39.589Z,17.85
2019-04-06T19:35:11.080Z,19.50
2019-04-06T19:37:41.149Z,19.50
2019-04-06T19:40:11.292Z,16.42
2019-04-06T19:42:41.048Z,18.55
2019-04-06T19:45:12.646Z,16.52
2019-04-06T19:47:42.441Z,17.20
2019-04-06T19:50:12.431Z,15.98
2019-04-06T19:52:42.524Z,16.70
2019-04-06T19:55:12.709Z,20.30
2019-04-06T19:57:42.758Z,16.17
2019-04-06T20:00:13.285Z,18.27
2019-04-06T20:02:42.965Z,16.10
2019-04-06T20:05:15.779Z,16.73
2019-04-06T20:07:45.584Z,14.98
2019-04-06T20:10:15.472Z,16.07
2019-04-06T20:12:45.227Z,18.87
2019-04-06T20:15:15.458Z,21.10
2019-04-06T20:17:45.269Z,18.42
2019-04-06T20:20:18.479Z,22.82
2019-04-06T20:22:49.753Z,17.95
2019-04-06T20:25:19.452Z,15.63
2019-04-06T20:27:50.127Z,17.15
2019-04-06T20:30:20.666Z,16.20
2019-04-06T20:32:50.322Z,17.57
2019-04-06T20:35:21.204Z,19.00
2019-04-06T20:37:51.127Z,18.52
2019-04-06T20:40:21.053Z,16.07
2019-04-06T20:42:50.653Z,16.93
2019-04-06T20:45:20.510Z,17.57
2019-04-06T20:47:52.284Z,17.80
2019-04-06T20:50:22.359Z,17.82
2019-04-06T20:52:52.521Z,18.27
2019-04-06T20:55:22.190Z,20.62
2019-04-06T20:57:51.801Z,18.95
2019-04-06T21:00:21.934Z,18.87
2019-04-06T21:02:52.415Z,18.35
2019-04-06T21:05:22.194Z,18.25
2019-04-06T21:07:56.944Z,19.77
2019-04-06T21:10:27.005Z,17.40
2019-04-06T21:12:58.863Z,18.95
2019-04-06T21:15:29.485Z,18.80
2019-04-06T21:17:59.188Z,19.27
2019-04-06T21:20:29.045Z,18.17
2019-04-06T21:22:58.694Z,16.45
2019-04-06T21:25:28.514Z,17.25
2019-04-06T21:27:58.227Z,17.75
2019-04-06T21:30:27.891Z,21.35
2019-04-06T21:32:57.801Z,18.80
2019-04-06T21:35:27.861Z,18.95
2019-04-06T21:37:57.908Z,18.77
2019-04-06T21:40:27.677Z,16.62
2019-04-06T21:42:57.719Z,17.37
2019-04-06T21:45:27.474Z,21.07
2019-04-06T21:47:57.110Z,19.50
2019-04-06T21:50:31.982Z,19.95
2019-04-06T21:53:01.648Z,17.37
2019-04-06T21:55:31.358Z,18.52
2019-04-06T21:58:01.086Z,15.28
2019-04-06T22:00:40.018Z,19.92
2019-04-06T22:03:12.151Z,15.80
2019-04-06T22:05:42.100Z,15.35
2019-04-06T22:08:15.933Z,14.80
2019-04-06T22:10:45.895Z,21.95
2019-04-06T22:13:15.801Z,16.75
2019-04-06T22:15:46.210Z,17.02
2019-04-06T22:18:15.827Z,14.43
2019-04-06T22:20:45.480Z,14.78
2019-04-06T22:23:15.133Z,18.80
2019-04-06T22:25:44.914Z,17.40
2019-04-06T22:28:17.770Z,17.57
2019-04-06T22:30:49.720Z,20.95
2019-04-06T22:33:22.433Z,17.25
2019-04-06T22:35:52.142Z,16.48
2019-04-06T22:38:21.844Z,15.18
2019-04-06T22:40:52.012Z,21.57
2019-04-06T22:43:21.876Z,19.35
2019-04-06T22:45:51.890Z,14.98
2019-04-06T22:48:21.546Z,15.72
2019-04-06T22:50:52.794Z,20.72
2019-04-06T22:53:25.381Z,17.82
2019-04-06T22:55:55.238Z,19.52
2019-04-06T22:58:25.352Z,17.05
2019-04-06T23:01:01.755Z,15.63
2019-04-06T23:03:58.449Z,17.67
2019-04-06T23:06:33.214Z,20.35
2019-04-06T23:09:04.423Z,17.57
2019-04-06T23:11:34.348Z,14.28
2019-04-06T23:14:04.826Z,17.90
2019-04-06T23:16:34.488Z,16.00
2019-04-06T23:19:05.142Z,18.12
2019-04-06T23:21:34.837Z,15.30
2019-04-06T23:24:05.565Z,16.07
2019-04-06T23:26:35.241Z,16.55
2019-04-06T23:29:05.196Z,15.60
2019-04-06T23:31:34.963Z,13.43
2019-04-06T23:34:07.024Z,16.40
2019-04-06T23:36:36.800Z,14.90
2019-04-06T23:39:08.057Z,17.05
2019-04-06T23:41:37.967Z,17.30
2019-04-06T23:44:10.028Z,16.40
2019-04-06T23:46:43.460Z,16.23
2019-04-06T23:49:13.371Z,14.78
2019-04-06T23:51:42.995Z,17.65
2019-04-06T23:54:15.927Z,18.40
2019-04-06T23:56:47.500Z,15.23
2019-04-06T23:59:17.600Z,19.32
